S/y Tatsu — MKEM9 — position and weather

sailwx.info

Track history (hours):
 
Tides and Currents Weather Stations Pressure Air Temp Water Temp Dewpoint Dewpoint Depression Visibility Wind Speed Wind Dir Waves Ship Positions

S/y Tatsu

Last reported at 2015-Jul-14 10:14 UTC. Time now 2015-Jul-28 17:42 UTC.
Position N 50°30' W 001°06'.
Warning: this ship's position is 14 days out of date.

Length 11 m.

Type: Sailing vessel. MMSI: 235071049.

Date/timePositionNaut miles runAvg speedWind from/ knotsBaromVisibWave heightAir tempDewpointWater temp
2015-Jul-14 10:14N 50°30' W 001°06'6 6.2
2015-Jul-14 09:16N 50°36' W 001°05'4 5.2
2015-Jul-14 08:32N 50°39' W 001°03'5 4.9
2015-Jul-14 07:33N 50°44' W 001°04'4 3.8
2015-Jul-14 06:33N 50°47' W 001°07'0 0.0
2015-Jul-13 18:31N 50°47' W 001°07'0 0.0
2015-Jul-13 17:31N 50°47' W 001°07'0 0.0
2015-Jul-13 05:33N 50°47' W 001°07'0 0.0
2015-Jul-12 10:32N 50°47' W 001°07'  
2015-Jul-09 14:28N 50°47' W 001°07'0 0.0
2015-Jul-09 13:31N 50°47' W 001°07'0 0.3
2015-Jul-09 12:33N 50°48' W 001°07'3 2.6
2015-Jul-09 11:33N 50°45' W 001°05'2 1.6
2015-Jul-09 10:33N 50°46' W 001°07'1 0.1
2015-Jul-08 14:05N 50°47' W 001°07'0 0.0
2015-Jul-08 13:32N 50°47' W 001°07'0 0.0
2015-Jul-08 12:32N 50°47' W 001°07'0 0.0
2015-Jul-08 11:32N 50°47' W 001°07'0 0.0
2015-Jul-08 10:29N 50°47' W 001°07'0 0.0
2015-Jul-08 09:32N 50°47' W 001°07'0 0.0
2015-Jul-08 08:32N 50°47' W 001°07'0 0.0
2015-Jul-07 15:32N 50°47' W 001°07'0 0.0
2015-Jul-07 14:32N 50°47' W 001°07'0 0.0
2015-Jul-07 13:32N 50°47' W 001°07'0 0.0
2015-Jul-07 12:32N 50°47' W 001°07'0 0.0
2015-Jul-07 11:32N 50°47' W 001°07'0 0.0
2015-Jul-07 08:33N 50°47' W 001°07'0 0.0
2015-Jul-07 07:33N 50°47' W 001°07'0 0.0
2015-Jul-06 21:33N 50°47' W 001°07'0 0.0
2015-Jul-06 20:33N 50°47' W 001°07'0 0.0
2015-Jul-06 19:33N 50°47' W 001°07'0 0.0
2015-Jul-06 16:31N 50°47' W 001°07'0 0.0
2015-Jul-06 15:31N 50°47' W 001°07'  
Track history (hours):
 
Tides and Currents Weather Stations Pressure Air Temp Water Temp Dewpoint Dewpoint Depression Visibility Wind Speed Wind Dir Waves Ship Positions

S/y Tatsu

Last reported at 2015-Jul-14 10:14 UTC. Time now 2015-Jul-28 17:42 UTC.
Position N 50°30' W 001°06'.
Warning: this ship's position is 14 days out of date.

Length 11 m.

Type: Sailing vessel. MMSI: 235071049.

Date/timePositionNaut miles runAvg speedWind from/ knotsBaromVisibWave heightAir tempDewpointWater temp
2015-Jul-14 10:14N 50°30' W 001°06'6 6.2
2015-Jul-14 09:16N 50°36' W 001°05'4 5.2
2015-Jul-14 08:32N 50°39' W 001°03'5 4.9
2015-Jul-14 07:33N 50°44' W 001°04'4 3.8
2015-Jul-14 06:33N 50°47' W 001°07'0 0.0
2015-Jul-13 18:31N 50°47' W 001°07'0 0.0
2015-Jul-13 17:31N 50°47' W 001°07'0 0.0
2015-Jul-13 05:33N 50°47' W 001°07'0 0.0
2015-Jul-12 10:32N 50°47' W 001°07'  
2015-Jul-09 14:28N 50°47' W 001°07'0 0.0
2015-Jul-09 13:31N 50°47' W 001°07'0 0.3
2015-Jul-09 12:33N 50°48' W 001°07'3 2.6
2015-Jul-09 11:33N 50°45' W 001°05'2 1.6
2015-Jul-09 10:33N 50°46' W 001°07'1 0.1
2015-Jul-08 14:05N 50°47' W 001°07'0 0.0
2015-Jul-08 13:32N 50°47' W 001°07'0 0.0
2015-Jul-08 12:32N 50°47' W 001°07'0 0.0
2015-Jul-08 11:32N 50°47' W 001°07'0 0.0
2015-Jul-08 10:29N 50°47' W 001°07'0 0.0
2015-Jul-08 09:32N 50°47' W 001°07'0 0.0
2015-Jul-08 08:32N 50°47' W 001°07'0 0.0
2015-Jul-07 15:32N 50°47' W 001°07'0 0.0
2015-Jul-07 14:32N 50°47' W 001°07'0 0.0
2015-Jul-07 13:32N 50°47' W 001°07'0 0.0
2015-Jul-07 12:32N 50°47' W 001°07'0 0.0
2015-Jul-07 11:32N 50°47' W 001°07'0 0.0
2015-Jul-07 08:33N 50°47' W 001°07'0 0.0
2015-Jul-07 07:33N 50°47' W 001°07'0 0.0
2015-Jul-06 21:33N 50°47' W 001°07'0 0.0
2015-Jul-06 20:33N 50°47' W 001°07'0 0.0
2015-Jul-06 19:33N 50°47' W 001°07'0 0.0
2015-Jul-06 16:31N 50°47' W 001°07'0 0.0
2015-Jul-06 15:31N 50°47' W 001°07'  

Dump ship's entire track history